Time;durP1;ratioP1;P1;durP2;ratioP2;P2;SDS_P1;SDS_P2;PMS_P1;PMS_P2;Temp;Humidity;BMP_temperature;BMP_pressure;BME280_temperature;BME280_humidity;BME280_pressure;Samples;Min_cycle;Max_cycle;Signal;HPM_P1;HPM_P2
2024/04/01 00:00:02;;;;;;;1.50;1.03;;;12.50;99.90;;;;;;5034020;28;20428;-71
2024/04/01 00:02:28;;;;;;;1.10;1.00;;;12.50;99.90;;;;;;5033188;28;20486;-69
2024/04/01 00:04:54;;;;;;;1.60;1.00;;;12.50;99.90;;;;;;5033928;28;20829;-73
2024/04/01 00:07:20;;;;;;;2.20;1.30;;;12.50;99.90;;;;;;5033338;28;20207;-75
2024/04/01 00:09:48;;;;;;;1.47;1.33;;;12.50;99.90;;;;;;5033001;28;20199;-72
2024/04/01 00:12:14;;;;;;;1.20;1.10;;;12.50;99.90;;;;;;5035535;28;20479;-70
2024/04/01 00:14:40;;;;;;;1.57;1.20;;;12.50;99.90;;;;;;5036874;28;20424;-70
2024/04/01 00:17:05;;;;;;;2.07;1.30;;;12.40;99.90;;;;;;5037714;28;20736;-72
2024/04/01 00:19:31;;;;;;;4.10;1.20;;;12.30;99.90;;;;;;5036943;28;20194;-69
2024/04/01 00:21:57;;;;;;;2.10;1.50;;;12.30;99.90;;;;;;5037521;28;20186;-73
2024/04/01 00:24:22;;;;;;;2.00;1.10;;;12.30;99.90;;;;;;5036635;28;20284;-71
2024/04/01 00:26:48;;;;;;;2.00;1.10;;;12.30;99.90;;;;;;5036392;28;20248;-70
2024/04/01 00:29:14;;;;;;;1.20;0.93;;;12.30;99.90;;;;;;5037451;28;20244;-72
2024/04/01 00:31:40;;;;;;;1.03;0.93;;;12.30;99.90;;;;;;5036694;28;20188;-71
2024/04/01 00:34:05;;;;;;;1.43;1.30;;;12.30;99.90;;;;;;5037722;28;20186;-71
2024/04/01 00:36:31;;;;;;;2.70;1.30;;;12.30;99.90;;;;;;5036776;28;20480;-71
2024/04/01 00:38:58;;;;;;;1.47;1.00;;;12.30;99.90;;;;;;5037731;28;20181;-71
2024/04/01 00:41:26;;;;;;;2.27;1.10;;;12.30;99.90;;;;;;5036967;28;20214;-70
2024/04/01 00:43:55;;;;;;;1.63;1.37;;;12.20;99.90;;;;;;5037718;28;20431;-68
2024/04/01 00:46:21;;;;;;;1.40;1.30;;;12.20;99.90;;;;;;5036720;28;20783;-67
2024/04/01 00:48:49;;;;;;;1.53;1.03;;;12.20;99.90;;;;;;5036587;28;20904;-68
2024/04/01 00:51:17;;;;;;;1.57;1.10;;;12.20;99.90;;;;;;5036581;28;20437;-73
2024/04/01 00:53:43;;;;;;;1.20;1.10;;;12.20;99.90;;;;;;5036671;28;20439;-73
2024/04/01 00:56:10;;;;;;;3.07;2.30;;;12.20;99.90;;;;;;5036593;28;20451;-70
2024/04/01 00:58:36;;;;;;;3.33;3.00;;;12.20;99.90;;;;;;5036340;28;20452;-69
2024/04/01 01:01:03;;;;;;;4.97;4.10;;;12.20;99.90;;;;;;5037449;28;20416;-69
2024/04/01 01:03:29;;;;;;;3.87;3.47;;;12.20;99.90;;;;;;5036193;28;20432;-70
2024/04/01 01:05:54;;;;;;;4.60;3.50;;;12.20;99.90;;;;;;5037385;28;20455;-71
2024/04/01 01:08:20;;;;;;;6.53;5.27;;;12.20;99.90;;;;;;5036635;28;20197;-73
2024/04/01 01:10:46;;;;;;;6.43;4.70;;;12.10;99.90;;;;;;5035262;28;20190;-70
2024/04/01 01:13:12;;;;;;;3.87;3.07;;;12.10;99.90;;;;;;5036988;28;20435;-68
2024/04/01 01:15:37;;;;;;;2.53;2.00;;;12.10;99.90;;;;;;5035761;28;20693;-72
2024/04/01 01:18:03;;;;;;;2.63;2.30;;;12.00;99.90;;;;;;5043070;28;20213;-74
2024/04/01 01:20:29;;;;;;;3.53;2.53;;;12.00;99.90;;;;;;5035826;28;20186;-72
2024/04/01 01:22:56;;;;;;;1.73;1.53;;;12.10;99.90;;;;;;5034697;28;20190;-74
2024/04/01 01:25:22;;;;;;;2.37;1.50;;;12.00;99.90;;;;;;5036548;28;20181;-68
2024/04/01 01:27:47;;;;;;;2.07;1.70;;;12.00;99.90;;;;;;5036410;28;20490;-68
2024/04/01 01:30:16;;;;;;;2.30;1.33;;;12.00;99.90;;;;;;5037029;28;20222;-70
2024/04/01 01:32:51;;;;;;;1.70;1.10;;;12.00;99.90;;;;;;5036391;28;20212;-73
2024/04/01 01:35:26;;;;;;;1.40;0.80;;;12.00;99.90;;;;;;5036474;28;20496;-72
2024/04/01 01:37:53;;;;;;;2.80;0.90;;;12.00;99.90;;;;;;5036010;28;20960;-70
2024/04/01 01:40:19;;;;;;;1.43;0.90;;;12.00;99.90;;;;;;5036087;28;20433;-72
2024/04/01 01:42:45;;;;;;;1.20;0.80;;;11.90;99.90;;;;;;5036465;28;20440;-71
2024/04/01 01:45:11;;;;;;;1.47;1.00;;;11.90;99.90;;;;;;5036455;28;20428;-70
2024/04/01 01:47:37;;;;;;;0.80;0.50;;;11.90;99.90;;;;;;5035335;28;20632;-72
2024/04/01 01:50:05;;;;;;;0.80;0.70;;;11.90;99.90;;;;;;5036924;28;20698;-72
2024/04/01 01:52:31;;;;;;;0.80;0.67;;;12.00;99.90;;;;;;5036309;28;20428;-73
2024/04/01 01:54:57;;;;;;;2.20;0.80;;;12.00;99.90;;;;;;5036556;28;20455;-71
2024/04/01 01:57:23;;;;;;;1.30;0.60;;;12.00;99.90;;;;;;5067604;28;20236;-72
2024/04/01 01:59:49;;;;;;;0.63;0.40;;;12.00;99.90;;;;;;5036674;28;20185;-73
2024/04/01 02:02:16;;;;;;;1.00;0.70;;;12.10;99.90;;;;;;5035823;28;20507;-71
2024/04/01 02:04:42;;;;;;;0.80;0.50;;;12.10;99.90;;;;;;5036050;28;20570;-73
2024/04/01 02:07:08;;;;;;;0.90;0.63;;;12.10;99.90;;;;;;5035179;28;20448;-71
2024/04/01 02:09:35;;;;;;;0.87;0.50;;;12.20;99.90;;;;;;5035217;28;20422;-70
2024/04/01 02:12:07;;;;;;;0.70;0.50;;;12.20;99.90;;;;;;5035881;28;20428;-73
2024/04/01 02:14:39;;;;;;;2.00;0.77;;;12.20;99.90;;;;;;5035175;28;21181;-70
2024/04/01 02:17:07;;;;;;;0.50;0.40;;;12.20;99.90;;;;;;5035399;28;20487;-69
2024/04/01 02:19:34;;;;;;;1.10;0.67;;;12.20;99.90;;;;;;5034915;28;20448;-71
2024/04/01 02:22:00;;;;;;;2.47;0.73;;;12.20;99.90;;;;;;5035758;28;20439;-73
2024/04/01 02:24:26;;;;;;;1.53;0.50;;;12.20;99.90;;;;;;5035201;28;20931;-70
2024/04/01 02:26:52;;;;;;;1.27;0.57;;;12.30;99.90;;;;;;5036011;28;20432;-71
2024/04/01 02:29:18;;;;;;;0.87;0.60;;;12.20;99.90;;;;;;5034684;28;20187;-71
2024/04/01 02:31:44;;;;;;;1.10;0.60;;;12.30;99.90;;;;;;5036520;28;20431;-74
2024/04/01 02:34:10;;;;;;;0.83;0.60;;;12.30;99.90;;;;;;5035177;28;20193;-70
2024/04/01 02:36:36;;;;;;;2.43;0.70;;;12.30;99.90;;;;;;5033110;28;20222;-70
2024/04/01 02:39:05;;;;;;;1.17;0.93;;;12.30;99.90;;;;;;5035747;28;20214;-70
2024/04/01 02:41:32;;;;;;;0.90;0.60;;;12.20;99.90;;;;;;5034540;28;20432;-69
2024/04/01 02:43:57;;;;;;;1.50;0.77;;;12.20;99.90;;;;;;5036202;28;20424;-73
2024/04/01 02:46:24;;;;;;;1.00;0.70;;;12.20;99.90;;;;;;5049379;28;20443;-68
2024/04/01 02:48:50;;;;;;;1.10;0.60;;;12.20;99.90;;;;;;5035302;28;20417;-70
2024/04/01 02:51:15;;;;;;;1.70;0.67;;;12.10;99.90;;;;;;5035280;28;20809;-69
2024/04/01 02:53:47;;;;;;;1.33;0.70;;;12.10;99.90;;;;;;5033771;28;20210;-70
2024/04/01 02:56:16;;;;;;;0.80;0.70;;;12.10;99.90;;;;;;5034351;28;20304;-70
2024/04/01 02:58:45;;;;;;;3.93;0.70;;;12.00;99.90;;;;;;5035131;28;20441;-72
2024/04/01 03:01:11;;;;;;;1.00;0.60;;;12.00;99.90;;;;;;5035463;28;20440;-69
2024/04/01 03:03:37;;;;;;;1.97;0.80;;;12.00;99.90;;;;;;5034800;28;21010;-70
2024/04/01 03:06:04;;;;;;;1.40;0.70;;;12.10;99.90;;;;;;5035150;28;20440;-70
2024/04/01 03:08:30;;;;;;;0.93;0.50;;;12.10;99.90;;;;;;5034102;28;20429;-71
2024/04/01 03:11:00;;;;;;;0.63;0.43;;;12.10;99.90;;;;;;5067479;28;20424;-72
2024/04/01 03:13:26;;;;;;;1.50;0.60;;;12.10;99.90;;;;;;5034097;28;20468;-68
2024/04/01 03:15:55;;;;;;;1.57;0.97;;;12.10;99.90;;;;;;5035679;28;20467;-72
2024/04/01 03:18:23;;;;;;;1.37;0.93;;;12.10;99.90;;;;;;5033794;28;20312;-71
2024/04/01 03:20:49;;;;;;;1.77;0.83;;;12.10;99.90;;;;;;5035501;28;20465;-70
2024/04/01 03:23:16;;;;;;;1.63;0.73;;;12.10;99.90;;;;;;5035065;28;20926;-70
2024/04/01 03:25:42;;;;;;;1.67;0.60;;;12.10;99.90;;;;;;5034750;28;20424;-73
2024/04/01 03:28:08;;;;;;;1.10;0.40;;;12.10;99.90;;;;;;5034742;28;20432;-75
2024/04/01 03:30:34;;;;;;;0.50;0.50;;;12.10;99.90;;;;;;5034403;28;20432;-73
2024/04/01 03:33:00;;;;;;;0.90;0.50;;;12.10;99.90;;;;;;5035388;28;20258;-70
2024/04/01 03:35:26;;;;;;;3.50;0.73;;;12.10;99.90;;;;;;5033944;28;20425;-69
2024/04/01 03:37:53;;;;;;;4.00;0.70;;;12.00;99.90;;;;;;5035168;28;20468;-73
2024/04/01 03:40:21;;;;;;;2.97;0.83;;;12.00;99.90;;;;;;5034220;28;21061;-72
2024/04/01 03:42:47;;;;;;;2.33;1.00;;;12.00;99.90;;;;;;5067259;28;20436;-70
2024/04/01 03:45:13;;;;;;;2.87;0.70;;;12.00;99.90;;;;;;5034555;28;20832;-72
2024/04/01 03:47:38;;;;;;;2.80;1.07;;;11.90;99.90;;;;;;5037927;28;20189;-70
2024/04/01 03:50:05;;;;;;;1.77;0.70;;;11.90;99.90;;;;;;5039064;28;20189;-73
2024/04/01 03:52:34;;;;;;;1.03;0.63;;;11.90;99.90;;;;;;5037662;28;20735;-73
2024/04/01 03:55:00;;;;;;;0.80;0.60;;;11.90;99.90;;;;;;5038922;28;20427;-73
2024/04/01 03:57:25;;;;;;;2.20;0.83;;;11.80;99.90;;;;;;5038282;28;20918;-72
2024/04/01 03:59:51;;;;;;;1.37;0.67;;;11.80;99.90;;;;;;5038569;28;20428;-72
2024/04/01 04:02:17;;;;;;;0.80;0.67;;;11.80;99.90;;;;;;5037907;28;20175;-71
2024/04/01 04:04:43;;;;;;;1.23;0.70;;;11.80;99.90;;;;;;5038784;28;20284;-71
2024/04/01 04:07:08;;;;;;;2.30;0.90;;;11.80;99.90;;;;;;5053282;28;20475;-71
2024/04/01 04:09:34;;;;;;;0.70;0.60;;;11.80;99.90;;;;;;5037465;28;20284;-70
2024/04/01 04:12:00;;;;;;;2.20;0.63;;;11.80;99.90;;;;;;5038662;28;20192;-70
2024/04/01 04:14:26;;;;;;;0.80;0.60;;;11.80;99.90;;;;;;5052198;28;20957;-69
2024/04/01 04:16:52;;;;;;;1.13;0.60;;;11.80;99.90;;;;;;5038055;28;20213;-68
2024/04/01 04:19:19;;;;;;;0.90;0.70;;;11.80;99.90;;;;;;5037610;28;20642;-70
2024/04/01 04:21:46;;;;;;;0.80;0.40;;;11.70;99.90;;;;;;5035650;28;20425;-74
2024/04/01 04:24:13;;;;;;;1.10;0.50;;;11.70;99.90;;;;;;5036661;28;20428;-72
2024/04/01 04:26:39;;;;;;;0.70;0.67;;;11.80;99.90;;;;;;5036927;28;20429;-73
2024/04/01 04:29:05;;;;;;;0.80;0.70;;;11.80;99.90;;;;;;5038265;28;20483;-71
2024/04/01 04:31:31;;;;;;;0.80;0.50;;;11.80;99.90;;;;;;5037069;28;20429;-69
2024/04/01 04:33:57;;;;;;;1.73;0.50;;;11.80;99.90;;;;;;5038013;28;20186;-70
2024/04/01 04:36:23;;;;;;;0.90;0.60;;;11.80;99.90;;;;;;5036707;28;21178;-71
2024/04/01 04:38:50;;;;;;;0.60;0.50;;;11.80;99.90;;;;;;5037695;28;20431;-68
2024/04/01 04:41:19;;;;;;;1.73;0.70;;;11.80;99.90;;;;;;5036365;28;20432;-70
2024/04/01 04:43:45;;;;;;;1.33;0.77;;;11.80;99.90;;;;;;5037989;28;20471;-74
2024/04/01 04:46:14;;;;;;;1.30;0.80;;;11.80;99.90;;;;;;5037239;28;20432;-72
2024/04/01 04:48:40;;;;;;;1.33;0.80;;;11.80;99.90;;;;;;5037453;28;20471;-73
2024/04/01 04:51:06;;;;;;;1.40;0.70;;;11.70;99.90;;;;;;5037972;28;20531;-73
2024/04/01 04:53:32;;;;;;;1.03;0.80;;;11.70;99.90;;;;;;5036046;28;21148;-72
2024/04/01 04:55:57;;;;;;;1.27;0.70;;;11.70;99.90;;;;;;5037664;28;20189;-74
2024/04/01 04:58:23;;;;;;;1.30;0.90;;;11.80;99.90;;;;;;5067517;28;20472;-70
2024/04/01 05:00:49;;;;;;;0.60;0.60;;;11.80;99.90;;;;;;5039791;28;20216;-71
2024/04/01 05:03:15;;;;;;;2.20;0.90;;;11.80;99.90;;;;;;5039496;28;20205;-73
2024/04/01 05:05:40;;;;;;;1.03;0.63;;;11.80;99.90;;;;;;5038148;28;20189;-73
2024/04/01 05:08:06;;;;;;;1.77;0.77;;;11.70;99.90;;;;;;5036504;28;20436;-70
2024/04/01 05:10:33;;;;;;;0.77;0.50;;;11.70;99.90;;;;;;5036297;28;20204;-71
2024/04/01 05:12:59;;;;;;;1.23;0.70;;;11.70;99.90;;;;;;5037698;28;20182;-70
2024/04/01 05:15:25;;;;;;;1.10;0.60;;;11.70;99.90;;;;;;5036292;28;21223;-72
2024/04/01 05:17:51;;;;;;;0.63;0.60;;;11.70;99.90;;;;;;5036573;28;20462;-74
2024/04/01 05:20:17;;;;;;;1.00;0.70;;;11.70;99.90;;;;;;5035722;28;21033;-69
2024/04/01 05:22:42;;;;;;;0.67;0.50;;;11.70;99.90;;;;;;5036740;28;20431;-74
2024/04/01 05:25:08;;;;;;;1.83;0.80;;;11.70;99.90;;;;;;5068612;28;20190;-72
2024/04/01 05:27:34;;;;;;;1.10;0.70;;;11.70;99.90;;;;;;5036737;28;20268;-73
2024/04/01 05:30:05;;;;;;;2.00;0.73;;;11.70;99.90;;;;;;5034091;28;20270;-70
2024/04/01 05:32:32;;;;;;;0.80;0.70;;;11.70;99.90;;;;;;5035429;28;20515;-70
2024/04/01 05:34:58;;;;;;;1.00;0.70;;;11.70;99.90;;;;;;5036156;28;20428;-71
2024/04/01 05:37:24;;;;;;;3.10;0.60;;;11.70;99.90;;;;;;5034621;28;20978;-70
2024/04/01 05:39:53;;;;;;;1.30;0.63;;;11.70;99.90;;;;;;5034741;28;20957;-74
2024/04/01 05:42:20;;;;;;;2.17;0.90;;;11.70;99.90;;;;;;5035465;28;20429;-70
2024/04/01 05:44:46;;;;;;;1.43;0.60;;;11.70;99.90;;;;;;5036911;28;20428;-72
2024/04/01 05:47:12;;;;;;;0.70;0.50;;;11.70;99.90;;;;;;5036031;28;20433;-69
2024/04/01 05:49:38;;;;;;;1.10;1.00;;;11.70;99.90;;;;;;5036565;28;20451;-69
2024/04/01 05:52:04;;;;;;;1.53;0.67;;;11.70;99.90;;;;;;5036828;28;20231;-70
2024/04/01 05:54:30;;;;;;;0.93;0.67;;;11.70;99.90;;;;;;5036518;28;20187;-72
2024/04/01 05:57:00;;;;;;;1.10;0.80;;;11.70;99.90;;;;;;5036498;28;20479;-70
2024/04/01 05:59:27;;;;;;;0.83;0.60;;;11.70;99.90;;;;;;5035791;28;21179;-74
2024/04/01 06:01:53;;;;;;;1.20;1.00;;;11.70;99.90;;;;;;5036414;28;20477;-70
2024/04/01 06:04:20;;;;;;;1.90;1.07;;;11.70;99.90;;;;;;5035635;28;20425;-70
2024/04/01 06:06:46;;;;;;;1.27;0.70;;;11.70;99.90;;;;;;5036138;28;20424;-70
2024/04/01 06:09:12;;;;;;;2.33;0.93;;;11.70;99.90;;;;;;5035087;28;20420;-74
2024/04/01 06:11:38;;;;;;;1.27;0.83;;;11.70;99.90;;;;;;5036236;28;20512;-70
2024/04/01 06:14:04;;;;;;;2.33;1.20;;;11.60;99.90;;;;;;5035482;28;20448;-73
2024/04/01 06:16:30;;;;;;;1.00;0.87;;;11.60;99.90;;;;;;5035993;28;20186;-71
2024/04/01 06:18:55;;;;;;;2.30;1.00;;;11.60;99.90;;;;;;5036363;28;20200;-73
2024/04/01 06:21:21;;;;;;;1.80;1.13;;;11.60;99.90;;;;;;5034902;28;20421;-72
2024/04/01 06:23:47;;;;;;;1.80;1.30;;;11.60;99.90;;;;;;5036394;28;20231;-70
2024/04/01 06:26:13;;;;;;;1.97;1.40;;;11.60;99.90;;;;;;5034843;28;20421;-72
2024/04/01 06:28:39;;;;;;;1.70;0.93;;;11.60;99.90;;;;;;5035991;28;20193;-73
2024/04/01 06:31:05;;;;;;;2.63;1.27;;;11.60;99.90;;;;;;5035307;28;20433;-68
2024/04/01 06:33:33;;;;;;;1.40;1.30;;;11.60;99.90;;;;;;5035747;28;20939;-71
2024/04/01 06:36:02;;;;;;;1.70;1.10;;;11.50;99.90;;;;;;5034914;28;20447;-70
2024/04/01 06:38:29;;;;;;;2.67;1.10;;;11.50;99.90;;;;;;5035330;28;20526;-70
2024/04/01 06:40:56;;;;;;;3.77;1.30;;;11.50;99.90;;;;;;5035636;28;20479;-69
2024/04/01 06:43:22;;;;;;;4.10;1.67;;;11.50;99.90;;;;;;5035119;28;20645;-70
2024/04/01 06:45:58;;;;;;;1.50;1.40;;;11.50;99.90;;;;;;5035434;28;20421;-69
2024/04/01 06:48:25;;;;;;;2.60;1.60;;;11.50;99.90;;;;;;5034621;28;20929;-74
2024/04/01 06:50:51;;;;;;;2.43;2.10;;;11.60;99.90;;;;;;5035561;28;20433;-69
2024/04/01 06:53:17;;;;;;;3.40;2.00;;;11.50;99.90;;;;;;5035687;28;21049;-70
2024/04/01 06:55:44;;;;;;;2.70;2.10;;;11.60;99.90;;;;;;5035663;28;21026;-72
2024/04/01 06:58:10;;;;;;;3.27;1.80;;;11.60;99.90;;;;;;5034299;28;21253;-72
2024/04/01 07:00:36;;;;;;;2.63;1.57;;;11.60;99.90;;;;;;5035099;28;20428;-68
2024/04/01 07:03:02;;;;;;;3.50;1.50;;;11.60;99.90;;;;;;5035291;28;20445;-70
2024/04/01 07:05:30;;;;;;;2.77;1.33;;;11.60;99.90;;;;;;5034599;28;20432;-68
2024/04/01 07:07:56;;;;;;;1.93;1.30;;;11.60;99.90;;;;;;5035340;28;20451;-70
2024/04/01 07:10:22;;;;;;;1.83;1.23;;;11.60;99.90;;;;;;5033183;28;20543;-72
2024/04/01 07:12:47;;;;;;;2.00;1.37;;;11.60;99.90;;;;;;5049587;28;20532;-73
2024/04/01 07:15:13;;;;;;;4.83;1.87;;;11.60;99.90;;;;;;5034608;28;20417;-71
2024/04/01 07:17:39;;;;;;;2.23;1.33;;;11.60;99.90;;;;;;5035092;28;20214;-70
2024/04/01 07:20:07;;;;;;;2.60;1.20;;;11.70;99.90;;;;;;5033845;28;20493;-70
2024/04/01 07:22:32;;;;;;;2.57;1.20;;;11.80;99.90;;;;;;5034158;28;20490;-72
2024/04/01 07:24:58;;;;;;;5.27;1.10;;;11.80;99.90;;;;;;5034777;28;20432;-70
2024/04/01 07:27:24;;;;;;;3.43;1.17;;;11.80;99.90;;;;;;5034516;28;20236;-68
2024/04/01 07:29:49;;;;;;;1.83;1.30;;;11.80;99.90;;;;;;5035195;28;20194;-71
2024/04/01 07:32:15;;;;;;;1.57;1.30;;;11.80;99.90;;;;;;5032996;28;20174;-68
2024/04/01 07:34:41;;;;;;;1.67;1.33;;;11.80;99.90;;;;;;5034777;28;20475;-71
2024/04/01 07:37:07;;;;;;;1.10;1.00;;;11.90;99.90;;;;;;5034178;28;20224;-68
2024/04/01 07:39:33;;;;;;;3.70;1.43;;;11.90;99.90;;;;;;5034119;28;20197;-71
2024/04/01 07:41:59;;;;;;;1.53;1.07;;;11.90;99.90;;;;;;5034195;28;21086;-70
2024/04/01 07:44:25;;;;;;;2.73;1.07;;;11.90;99.90;;;;;;5034827;28;20424;-69
2024/04/01 07:46:50;;;;;;;2.10;1.17;;;11.90;99.90;;;;;;5033371;28;20182;-71
2024/04/01 07:49:16;;;;;;;2.50;1.43;;;11.90;99.90;;;;;;5034167;28;20222;-74
2024/04/01 07:51:42;;;;;;;2.00;1.10;;;11.90;99.90;;;;;;5034670;28;20251;-73
2024/04/01 07:54:07;;;;;;;3.67;1.67;;;11.90;99.90;;;;;;5034339;28;20222;-73
2024/04/01 07:56:35;;;;;;;2.17;1.33;;;11.90;99.90;;;;;;5034400;28;20671;-72
2024/04/01 07:59:00;;;;;;;1.77;1.40;;;11.90;99.90;;;;;;5034078;28;20186;-71
2024/04/01 08:01:27;;;;;;;3.03;1.43;;;11.90;99.90;;;;;;5066902;28;20430;-72
2024/04/01 08:03:52;;;;;;;2.37;1.57;;;12.00;99.90;;;;;;5034115;28;20175;-71
2024/04/01 08:06:18;;;;;;;2.87;1.97;;;11.90;99.90;;;;;;5039973;28;20515;-70
2024/04/01 08:08:43;;;;;;;1.83;1.50;;;11.90;99.90;;;;;;5035272;28;20189;-72
2024/04/01 08:11:09;;;;;;;2.53;1.90;;;11.90;99.90;;;;;;5033685;28;20201;-72
2024/04/01 08:13:35;;;;;;;3.77;1.87;;;11.90;99.90;;;;;;5035594;28;20265;-74
2024/04/01 08:16:02;;;;;;;1.70;1.47;;;11.90;99.90;;;;;;5065645;28;20178;-74
2024/04/01 08:18:28;;;;;;;1.93;1.70;;;12.00;99.90;;;;;;5033301;28;20751;-71
2024/04/01 08:20:56;;;;;;;2.03;1.83;;;11.90;99.90;;;;;;5029441;28;20444;-73
2024/04/01 08:23:24;;;;;;;1.83;1.70;;;11.90;99.90;;;;;;5036073;28;20205;-71
2024/04/01 08:25:49;;;;;;;1.50;1.40;;;11.90;99.90;;;;;;5034609;28;20812;-72
2024/04/01 08:28:17;;;;;;;2.80;1.93;;;11.90;99.90;;;;;;5034400;28;20432;-70
2024/04/01 08:30:43;;;;;;;1.70;1.60;;;11.90;99.90;;;;;;5034780;28;20274;-68
2024/04/01 08:33:09;;;;;;;2.40;2.20;;;11.90;99.90;;;;;;5065795;28;21145;-71
2024/04/01 08:35:35;;;;;;;2.20;2.00;;;11.90;99.90;;;;;;5036677;28;20435;-68
2024/04/01 08:38:02;;;;;;;2.30;1.87;;;11.90;99.90;;;;;;5038104;28;20459;-71
2024/04/01 08:40:32;;;;;;;2.23;2.03;;;11.90;99.90;;;;;;5037810;28;20552;-71
2024/04/01 08:43:03;;;;;;;3.07;2.20;;;11.90;99.90;;;;;;5039859;28;20439;-70
2024/04/01 08:45:29;;;;;;;2.60;2.40;;;11.80;99.90;;;;;;5042487;28;20420;-70
2024/04/01 08:48:08;;;;;;;4.37;2.80;;;11.90;99.90;;;;;;5035270;28;20445;-73
2024/04/01 08:50:40;;;;;;;3.20;2.90;;;11.90;99.90;;;;;;5037867;28;20420;-70
2024/04/01 08:53:16;;;;;;;3.33;3.03;;;11.80;99.90;;;;;;5037457;28;20504;-70
2024/04/01 08:55:42;;;;;;;3.60;2.87;;;11.80;99.90;;;;;;5038185;28;20495;-73
2024/04/01 08:58:08;;;;;;;3.53;3.07;;;11.90;99.90;;;;;;5035660;28;20455;-73
2024/04/01 09:00:34;;;;;;;3.00;2.80;;;11.90;99.90;;;;;;5042263;28;20432;-73
2024/04/01 09:03:00;;;;;;;3.70;3.40;;;11.90;99.90;;;;;;5037104;28;20193;-71
2024/04/01 09:05:26;;;;;;;3.40;3.20;;;11.90;99.90;;;;;;5037490;28;20432;-71
2024/04/01 09:07:52;;;;;;;3.87;3.57;;;11.90;99.90;;;;;;5036869;28;20658;-72
2024/04/01 09:10:21;;;;;;;3.90;3.23;;;12.00;99.90;;;;;;5037617;28;20439;-70
2024/04/01 09:12:52;;;;;;;5.03;4.50;;;12.00;99.90;;;;;;5036298;28;20440;-70
2024/04/01 09:15:18;;;;;;;4.70;4.20;;;12.00;99.90;;;;;;5038388;28;20417;-71
2024/04/01 09:17:44;;;;;;;4.10;3.70;;;12.00;99.90;;;;;;5036531;28;20977;-69
2024/04/01 09:20:10;;;;;;;5.37;4.87;;;11.90;99.90;;;;;;5066640;28;20236;-69
2024/04/01 09:22:35;;;;;;;5.60;5.10;;;11.90;99.90;;;;;;5068648;28;20468;-68
2024/04/01 09:25:01;;;;;;;5.83;5.30;;;11.80;99.90;;;;;;5035494;28;20572;-72
2024/04/01 09:27:27;;;;;;;6.03;5.00;;;11.80;99.90;;;;;;5037952;28;20200;-70
2024/04/01 09:29:52;;;;;;;7.13;6.43;;;11.80;99.90;;;;;;5036202;28;20185;-69
2024/04/01 09:32:18;;;;;;;6.20;5.60;;;11.80;99.90;;;;;;5036837;28;20210;-68
2024/04/01 09:34:44;;;;;;;6.77;6.07;;;11.60;99.90;;;;;;5038666;28;20197;-72
2024/04/01 09:37:10;;;;;;;6.37;5.77;;;11.60;99.90;;;;;;5034842;28;20481;-70
2024/04/01 09:39:40;;;;;;;7.00;6.30;;;11.50;99.90;;;;;;5037114;28;20180;-70
2024/04/01 09:42:09;;;;;;;6.73;5.50;;;11.60;99.90;;;;;;5037247;28;20183;-71
2024/04/01 09:44:35;;;;;;;5.73;5.10;;;11.60;99.90;;;;;;5037849;28;20468;-71
2024/04/01 09:47:03;;;;;;;6.23;4.60;;;11.60;99.90;;;;;;5034911;28;20802;-73
2024/04/01 09:49:30;;;;;;;5.27;4.77;;;11.60;99.90;;;;;;5038536;28;21056;-75
2024/04/01 09:51:56;;;;;;;6.03;5.53;;;11.60;99.90;;;;;;5037538;28;20451;-72
2024/04/01 09:54:22;;;;;;;6.53;5.67;;;11.60;99.90;;;;;;5039672;28;20458;-69
2024/04/01 09:56:56;;;;;;;5.73;5.23;;;11.60;99.90;;;;;;5038078;28;20900;-70
2024/04/01 10:00:00;;;;;;;6.17;5.63;;;11.60;99.90;;;;;;5038566;28;20192;-70
2024/04/01 10:02:44;;;;;;;6.63;6.03;;;11.60;99.90;;;;;;5038889;28;20428;-69
2024/04/01 10:05:35;;;;;;;6.90;6.00;;;11.50;99.90;;;;;;5038712;28;20444;-68
2024/04/01 10:08:03;;;;;;;7.97;7.27;;;11.50;99.90;;;;;;5038243;28;20433;-67
2024/04/01 10:10:51;;;;;;;9.87;8.00;;;11.60;99.90;;;;;;5039271;28;20428;-72
2024/04/01 10:13:54;;;;;;;8.67;7.70;;;11.50;99.90;;;;;;5039245;28;21029;-71
2024/04/01 10:16:28;;;;;;;9.77;8.87;;;11.60;99.90;;;;;;5038469;28;20432;-72
2024/04/01 10:19:17;;;;;;;9.87;8.87;;;11.60;99.90;;;;;;5038516;28;20521;-70
2024/04/01 10:22:13;;;;;;;11.07;9.97;;;11.60;99.90;;;;;;5039426;28;20437;-73
2024/04/01 10:24:54;;;;;;;13.00;11.70;;;11.60;99.90;;;;;;5036583;28;20460;-71
2024/04/01 10:27:45;;;;;;;13.43;12.13;;;11.60;99.90;;;;;;5066325;28;20468;-69
2024/04/01 10:30:37;;;;;;;14.07;12.57;;;11.60;99.90;;;;;;5036286;28;20459;-69
2024/04/01 10:33:47;;;;;;;15.40;13.90;;;11.50;99.90;;;;;;5035897;28;20421;-67
2024/04/01 10:36:34;;;;;;;14.83;13.33;;;11.50;99.90;;;;;;5000170;28;20527;-68
2024/04/01 10:39:47;;;;;;;15.13;13.60;;;11.50;99.90;;;;;;5036285;28;20447;-72
2024/04/01 10:42:22;;;;;;;14.57;13.27;;;11.50;99.90;;;;;;5036141;28;20816;-72
2024/04/01 10:45:00;;;;;;;13.90;12.47;;;11.60;99.90;;;;;;5036450;28;20789;-70
2024/04/01 10:47:57;;;;;;;13.77;12.47;;;11.60;99.90;;;;;;5037082;28;20922;-72
2024/04/01 10:50:44;;;;;;;11.43;10.40;;;11.60;99.90;;;;;;5035391;28;20541;-70
2024/04/01 10:53:44;;;;;;;13.37;12.17;;;11.60;99.90;;;;;;5036904;28;20445;-70
2024/04/01 10:56:31;;;;;;;11.17;10.13;;;11.60;99.90;;;;;;5036822;28;20429;-69
2024/04/01 10:59:25;;;;;;;11.23;10.23;;;11.60;99.90;;;;;;5034696;28;20468;-69
2024/04/01 11:02:20;;;;;;;11.43;10.43;;;11.70;99.90;;;;;;5050726;28;20474;-67
2024/04/01 11:05:23;;;;;;;10.57;9.67;;;11.70;99.90;;;;;;5031140;28;20439;-69
2024/04/01 11:08:04;;;;;;;10.23;9.33;;;11.80;99.90;;;;;;5034784;28;20433;-71
2024/04/01 11:10:42;;;;;;;8.90;8.00;;;11.90;99.90;;;;;;5036805;28;20430;-69
2024/04/01 11:13:15;;;;;;;9.50;8.60;;;12.00;99.90;;;;;;5036134;28;20978;-72
2024/04/01 11:15:42;;;;;;;10.27;9.17;;;11.90;99.90;;;;;;5035931;28;20465;-69
2024/04/01 11:18:32;;;;;;;9.37;8.47;;;11.90;99.90;;;;;;5035873;28;20471;-68
2024/04/01 11:21:09;;;;;;;10.60;9.43;;;12.00;99.90;;;;;;5035871;28;21263;-73
2024/04/01 11:23:55;;;;;;;10.40;9.33;;;12.00;99.90;;;;;;5036654;28;20427;-68
2024/04/01 11:26:35;;;;;;;10.20;9.20;;;11.90;99.90;;;;;;5038621;28;20467;-69
2024/04/01 11:29:10;;;;;;;10.97;9.87;;;11.90;99.90;;;;;;5038690;28;20436;-68
2024/04/01 11:31:50;;;;;;;10.43;9.33;;;11.90;99.90;;;;;;5035849;28;20997;-68
2024/04/01 11:34:20;;;;;;;12.43;11.13;;;11.90;99.90;;;;;;5036841;28;20809;-72
2024/04/01 11:36:48;;;;;;;13.30;11.90;;;11.90;99.90;;;;;;5035450;28;21383;-72
2024/04/01 11:39:17;;;;;;;12.37;11.10;;;11.90;99.90;;;;;;5036645;28;20421;-71
2024/04/01 11:41:48;;;;;;;13.50;12.07;;;11.90;99.90;;;;;;5036017;28;20550;-71
2024/04/01 11:44:22;;;;;;;13.90;11.43;;;11.90;99.90;;;;;;5068306;28;20806;-70
2024/04/01 11:46:50;;;;;;;12.83;11.53;;;11.90;99.90;;;;;;5036033;28;20424;-69
2024/04/01 11:49:16;;;;;;;10.80;9.70;;;11.90;99.90;;;;;;5036408;28;20531;-69
2024/04/01 11:51:42;;;;;;;11.60;10.40;;;11.80;99.90;;;;;;5035140;28;20570;-69
2024/04/01 11:54:08;;;;;;;10.80;9.77;;;11.80;99.90;;;;;;5036329;28;20178;-67
2024/04/01 11:56:40;;;;;;;11.33;10.10;;;11.80;99.90;;;;;;5036426;28;20464;-68
2024/04/01 11:59:10;;;;;;;10.93;9.83;;;11.80;99.90;;;;;;5035122;28;20225;-67
2024/04/01 12:01:38;;;;;;;10.67;9.60;;;11.90;99.90;;;;;;5034969;28;20424;-71
2024/04/01 12:04:05;;;;;;;11.10;9.90;;;11.90;99.90;;;;;;5033385;28;20487;-73
2024/04/01 12:06:32;;;;;;;11.40;10.30;;;11.90;99.90;;;;;;5036992;28;20498;-70
2024/04/01 12:09:05;;;;;;;13.10;11.80;;;11.90;99.90;;;;;;5039074;28;20431;-72
2024/04/01 12:11:32;;;;;;;13.03;11.73;;;11.80;99.90;;;;;;5040690;28;20503;-68
2024/04/01 12:13:58;;;;;;;12.70;11.40;;;11.90;99.90;;;;;;5040188;28;20442;-71
2024/04/01 12:16:24;;;;;;;12.93;11.50;;;11.90;99.90;;;;;;5040342;28;20513;-66
2024/04/01 12:18:51;;;;;;;12.43;11.03;;;11.90;99.90;;;;;;5068023;28;20563;-71
2024/04/01 12:21:21;;;;;;;11.03;9.93;;;11.80;99.90;;;;;;5038802;28;20436;-69
2024/04/01 12:23:49;;;;;;;11.97;10.80;;;11.80;99.90;;;;;;5039153;28;20428;-70
2024/04/01 12:26:16;;;;;;;11.07;9.87;;;11.80;99.90;;;;;;5038452;28;20489;-67
2024/04/01 12:28:44;;;;;;;11.33;10.20;;;11.80;99.90;;;;;;5036898;28;20435;-72
2024/04/01 12:31:19;;;;;;;11.90;10.53;;;11.80;99.90;;;;;;5036947;28;20515;-71
2024/04/01 12:33:47;;;;;;;13.10;11.70;;;11.80;99.90;;;;;;5037536;28;20421;-70
2024/04/01 12:36:13;;;;;;;14.23;12.73;;;11.90;99.90;;;;;;5038321;28;20452;-70
2024/04/01 12:38:45;;;;;;;13.90;12.60;;;12.00;99.90;;;;;;5037671;28;21290;-69
2024/04/01 12:41:19;;;;;;;13.27;11.90;;;12.00;99.90;;;;;;5038706;28;20424;-71
2024/04/01 12:43:46;;;;;;;12.53;11.00;;;12.10;99.90;;;;;;5036809;28;20962;-68
2024/04/01 12:46:13;;;;;;;13.03;11.73;;;12.10;99.90;;;;;;5038849;28;20464;-70
2024/04/01 12:48:40;;;;;;;12.50;11.30;;;12.10;99.90;;;;;;5036227;28;20424;-72
2024/04/01 12:51:07;;;;;;;11.77;10.20;;;12.10;99.90;;;;;;5036909;28;20496;-70